DLH772 EDDM-VTBS
Flight info
| Callsign | DLH772 |
|---|---|
| Flight time | N/A |
| Altitude | 23000 |
| Route | KIRDI3W KIRDI DCT BUWOQ DCT OBFEZ/N0487F370 DCT STEIN DCT TEGRI DCT DINRO N743 UDROS DCT BAMUP DCT ROLIN DCT TAGAR DCT BT DCT BARAD M747 SUBUT/N0488F390 T923 ERLEV M11 RODAR A909 TUNEK B143 KRS A240 INRAK B449 RANAH L750 MERUN G452 LKN R460 GGC/N0485F410 R460 CEA L507 IGONI WILLA1C |
| Aircraft | A359/H-SADE2E3GHIJ1J2J3J4J5M1P2RWXYZ/LB1D1 |
Departure
| Time | 2026-05-07 20:03 |
|---|---|
| Airport | Munich Airport (EDDM) |
Arrival
| Time | N/A |
|---|---|
| Airport | Suvarnabhumi Airport (VTBS) |
| Time | Latitude | Longitude | Altitude | Speed | Heading |
|---|---|---|---|---|---|
| 2026-05-07 19:25 | 48.35322 | 11.80015 | 1476 ft | 0 kts | 263° |
| 2026-05-07 19:49 | 48.35322 | 11.80017 | 1491 ft | 2 kts | 263° |
| 2026-05-07 19:50 | 48.35328 | 11.80054 | 1487 ft | 4 kts | 237° |
| 2026-05-07 19:50 | 48.35343 | 11.80085 | 1476 ft | 4 kts | 253° |
| 2026-05-07 19:50 | 48.35347 | 11.80115 | 1476 ft | 4 kts | 256° |
| 2026-05-07 19:50 | 48.35357 | 11.80149 | 1476 ft | 4 kts | 215° |
| 2026-05-07 19:51 | 48.35378 | 11.80156 | 1476 ft | 4 kts | 173° |
| 2026-05-07 19:51 | 48.35403 | 11.80152 | 1476 ft | 2 kts | 173° |
| 2026-05-07 19:51 | 48.35405 | 11.80151 | 1476 ft | 0 kts | 173° |
| 2026-05-07 19:56 | 48.35402 | 11.80152 | 1491 ft | 2 kts | 173° |
| 2026-05-07 19:56 | 48.35366 | 11.80158 | 1484 ft | 8 kts | 173° |
| 2026-05-07 19:57 | 48.35286 | 11.80172 | 1476 ft | 14 kts | 173° |
| 2026-05-07 19:57 | 48.35181 | 11.80187 | 1484 ft | 15 kts | 185° |
| 2026-05-07 19:57 | 48.35129 | 11.80073 | 1481 ft | 14 kts | 261° |
| 2026-05-07 19:57 | 48.35118 | 11.79922 | 1489 ft | 15 kts | 264° |
| 2026-05-07 19:58 | 48.35106 | 11.79767 | 1491 ft | 15 kts | 263° |
| 2026-05-07 19:58 | 48.35047 | 11.79664 | 1481 ft | 14 kts | 185° |
| 2026-05-07 19:58 | 48.34948 | 11.79678 | 1489 ft | 15 kts | 173° |
| 2026-05-07 19:58 | 48.34846 | 11.79696 | 1484 ft | 14 kts | 171° |
| 2026-05-07 19:59 | 48.34811 | 11.79786 | 1477 ft | 11 kts | 91° |
| 2026-05-07 19:59 | 48.34819 | 11.79919 | 1491 ft | 14 kts | 84° |
| 2026-05-07 19:59 | 48.34831 | 11.80083 | 1484 ft | 16 kts | 83° |
| 2026-05-07 19:59 | 48.34841 | 11.80254 | 1481 ft | 16 kts | 93° |
| 2026-05-07 20:00 | 48.34778 | 11.80383 | 1476 ft | 16 kts | 158° |
| 2026-05-07 20:00 | 48.34670 | 11.80408 | 1486 ft | 14 kts | 173° |
| 2026-05-07 20:00 | 48.34625 | 11.80416 | 1481 ft | 0 kts | 173° |
| 2026-05-07 20:01 | 48.34610 | 11.80419 | 1483 ft | 6 kts | 173° |
| 2026-05-07 20:02 | 48.34541 | 11.80398 | 1484 ft | 14 kts | 204° |
| 2026-05-07 20:02 | 48.34467 | 11.80256 | 1487 ft | 22 kts | 257° |
| 2026-05-07 20:02 | 48.34444 | 11.79978 | 1489 ft | 35 kts | 263° |
| 2026-05-07 20:02 | 48.34391 | 11.79300 | 1485 ft | 94 kts | 263° |
| 2026-05-07 20:03 | 48.34295 | 11.78053 | 1482 ft | 145 kts | 263° |
| 2026-05-07 20:03 | 48.34164 | 11.76332 | 1632 ft | 175 kts | 264° |
| 2026-05-07 20:03 | 48.34032 | 11.74582 | 2372 ft | 167 kts | 265° |
| 2026-05-07 20:03 | 48.33892 | 11.72784 | 2776 ft | 181 kts | 263° |
| 2026-05-07 20:04 | 48.33326 | 11.71056 | 2956 ft | 198 kts | 222° |
| 2026-05-07 20:04 | 48.32001 | 11.70295 | 2998 ft | 216 kts | 182° |
| 2026-05-07 20:04 | 48.30461 | 11.70381 | 2987 ft | 225 kts | 175° |
| 2026-05-07 20:04 | 48.28914 | 11.70756 | 2985 ft | 226 kts | 161° |
| 2026-05-07 20:05 | 48.27529 | 11.71849 | 2991 ft | 225 kts | 145° |
| 2026-05-07 20:05 | 48.26247 | 11.73198 | 3075 ft | 226 kts | 144° |
| 2026-05-07 20:05 | 48.24935 | 11.74590 | 3257 ft | 240 kts | 144° |
| 2026-05-07 20:05 | 48.23508 | 11.76076 | 3598 ft | 256 kts | 146° |
| 2026-05-07 20:06 | 48.22021 | 11.77601 | 4157 ft | 261 kts | 146° |
| 2026-05-07 20:06 | 48.20508 | 11.79150 | 4767 ft | 265 kts | 146° |
| 2026-05-07 20:06 | 48.19145 | 11.81030 | 5359 ft | 271 kts | 128° |
| 2026-05-07 20:06 | 48.18359 | 11.83611 | 5938 ft | 277 kts | 101° |
| 2026-05-07 20:07 | 48.18317 | 11.86499 | 6558 ft | 281 kts | 84° |
| 2026-05-07 20:07 | 48.18537 | 11.89435 | 7157 ft | 285 kts | 83° |
| 2026-05-07 20:07 | 48.18775 | 11.92411 | 7775 ft | 290 kts | 83° |
| 2026-05-07 20:07 | 48.19006 | 11.95438 | 8423 ft | 294 kts | 84° |
| 2026-05-07 20:08 | 48.19231 | 11.98479 | 9074 ft | 299 kts | 84° |
| 2026-05-07 20:08 | 48.19455 | 12.01598 | 9736 ft | 303 kts | 84° |
| 2026-05-07 20:08 | 48.19680 | 12.04761 | 10355 ft | 307 kts | 84° |
| 2026-05-07 20:08 | 48.19906 | 12.07967 | 10961 ft | 311 kts | 84° |
| 2026-05-07 20:09 | 48.20133 | 12.11204 | 11610 ft | 314 kts | 84° |
| 2026-05-07 20:09 | 48.20360 | 12.14474 | 12257 ft | 316 kts | 84° |
| 2026-05-07 20:09 | 48.20588 | 12.17772 | 12895 ft | 320 kts | 84° |
| 2026-05-07 20:10 | 48.21047 | 12.24461 | 14094 ft | 326 kts | 84° |
| 2026-05-07 20:10 | 48.21278 | 12.27857 | 14629 ft | 329 kts | 84° |
| 2026-05-07 20:10 | 48.21511 | 12.31289 | 15165 ft | 332 kts | 84° |
| 2026-05-07 20:10 | 48.21745 | 12.34752 | 15713 ft | 335 kts | 84° |
| 2026-05-07 20:11 | 48.21980 | 12.38246 | 16248 ft | 338 kts | 84° |
| 2026-05-07 20:11 | 48.22215 | 12.41758 | 16794 ft | 340 kts | 83° |
| 2026-05-07 20:11 | 48.22453 | 12.45320 | 17340 ft | 343 kts | 83° |
| 2026-05-07 20:11 | 48.22690 | 12.48896 | 17873 ft | 346 kts | 83° |
| 2026-05-07 20:12 | 48.22928 | 12.52501 | 18393 ft | 349 kts | 83° |